Time;durP1;ratioP1;P1;durP2;ratioP2;P2;SDS_P1;SDS_P2;PMS_P1;PMS_P2;Temp;Humidity;BMP_temperature;BMP_pressure;BME280_temperature;BME280_humidity;BME280_pressure;Samples;Min_cycle;Max_cycle;Signal;HPM_P1;HPM_P2
2023/05/08 00:00:52;;;;;;;132.90;59.42;;;;;;;12.53;100.00;102269.81;6100892;19;20010;-71
2023/05/08 00:02:58;;;;;;;116.53;54.40;;;;;;;12.51;100.00;102269.88;6097467;19;20059;-68
2023/05/08 00:05:04;;;;;;;130.05;54.72;;;;;;;12.48;100.00;102279.63;6099797;19;20011;-69
2023/05/08 00:07:09;;;;;;;123.35;56.25;;;;;;;12.42;100.00;102275.38;6095867;19;20006;-68
2023/05/08 00:09:14;;;;;;;120.00;52.63;;;;;;;12.39;100.00;102274.59;6099350;19;20018;-69
2023/05/08 00:11:22;;;;;;;117.75;54.90;;;;;;;12.37;100.00;102277.25;6098216;19;20661;-70
2023/05/08 00:13:30;;;;;;;122.47;54.15;;;;;;;12.34;100.00;102274.72;6100348;19;20019;-69
2023/05/08 00:15:37;;;;;;;118.30;53.72;;;;;;;12.32;100.00;102273.00;6099837;19;20670;-70
2023/05/08 00:17:45;;;;;;;117.38;50.55;;;;;;;12.26;100.00;102271.41;6099015;19;20011;-70
2023/05/08 00:19:50;;;;;;;116.97;53.72;;;;;;;12.25;100.00;102274.94;6100886;19;20396;-69
2023/05/08 00:21:55;;;;;;;120.60;53.88;;;;;;;12.23;100.00;102277.59;6102418;19;20500;-69
2023/05/08 00:24:00;;;;;;;121.63;53.65;;;;;;;12.18;100.00;102276.84;6101613;19;20039;-70
2023/05/08 00:26:05;;;;;;;115.18;51.78;;;;;;;12.15;100.00;102278.72;6101394;19;20090;-69
2023/05/08 00:28:12;;;;;;;124.95;56.65;;;;;;;12.12;100.00;102271.75;6099998;19;20421;-68
2023/05/08 00:30:18;;;;;;;117.07;52.80;;;;;;;12.11;100.00;102277.91;6100940;19;20010;-69
2023/05/08 00:32:24;;;;;;;121.15;55.58;;;;;;;12.12;100.00;102279.66;6100037;19;20006;-69
2023/05/08 00:34:29;;;;;;;122.60;56.63;;;;;;;12.15;100.00;102279.56;6101939;19;20085;-69
2023/05/08 00:36:34;;;;;;;134.15;56.20;;;;;;;12.18;100.00;102279.50;6099829;19;20003;-69
2023/05/08 00:38:39;;;;;;;132.55;59.63;;;;;;;12.18;100.00;102276.84;6098008;19;20006;-69
2023/05/08 00:40:44;;;;;;;131.13;55.35;;;;;;;12.15;100.00;102279.56;6102058;19;20006;-68
2023/05/08 00:42:49;;;;;;;124.03;54.40;;;;;;;12.16;100.00;102281.28;6099245;19;20118;-69
2023/05/08 00:44:57;;;;;;;128.50;56.97;;;;;;;12.12;100.00;102278.78;6103143;19;20359;-69
2023/05/08 00:47:02;;;;;;;121.88;55.38;;;;;;;12.13;100.00;102280.50;6096397;19;20018;-70
2023/05/08 00:49:09;;;;;;;121.88;56.28;;;;;;;12.12;100.00;102286.69;6100235;19;20113;-70
2023/05/08 00:51:15;;;;;;;125.63;56.17;;;;;;;12.08;100.00;102276.22;6100379;19;20014;-68
2023/05/08 00:53:21;;;;;;;110.45;52.85;;;;;;;12.02;100.00;102284.25;6096824;19;20017;-69
2023/05/08 00:55:27;;;;;;;122.15;53.17;;;;;;;12.00;100.00;102269.38;6098894;19;20021;-70
2023/05/08 00:57:34;;;;;;;121.45;55.05;;;;;;;11.98;100.00;102279.97;6096939;19;20006;-70
2023/05/08 00:59:44;;;;;;;121.63;55.45;;;;;;;11.98;100.00;102282.63;6099952;19;20456;-70
2023/05/08 01:01:53;;;;;;;118.47;53.33;;;;;;;11.94;100.00;102280.06;6097332;19;20450;-69
2023/05/08 01:03:59;;;;;;;129.77;58.15;;;;;;;11.95;100.00;102271.25;6099785;19;20044;-69
2023/05/08 01:06:05;;;;;;;127.65;57.70;;;;;;;11.93;100.00;102278.31;6099607;19;20081;-69
2023/05/08 01:08:10;;;;;;;120.78;53.45;;;;;;;11.91;100.00;102278.38;6099031;19;20017;-69
2023/05/08 01:10:15;;;;;;;136.63;57.97;;;;;;;11.88;100.00;102280.22;6099313;19;20003;-69
2023/05/08 01:12:28;;;;;;;148.27;62.95;;;;;;;11.86;100.00;102273.22;6097096;19;20025;-69
2023/05/08 01:14:46;;;;;;;128.65;58.72;;;;;;;11.82;100.00;102275.91;6098703;19;20048;-69
2023/05/08 01:17:01;;;;;;;128.85;54.65;;;;;;;11.81;100.00;102272.41;6098384;19;20049;-70
2023/05/08 01:19:23;;;;;;;127.75;53.63;;;;;;;11.79;100.00;102275.97;6098635;19;20044;-69
2023/05/08 01:21:37;;;;;;;129.68;55.70;;;;;;;11.75;100.00;102269.06;6096797;19;20027;-69
2023/05/08 01:24:06;;;;;;;119.72;55.17;;;;;;;11.70;100.00;102266.53;6099641;19;20883;-69
2023/05/08 01:26:38;;;;;;;107.45;53.00;;;;;;;11.64;100.00;102271.94;6095951;19;20472;-70
2023/05/08 01:29:29;;;;;;;128.57;55.72;;;;;;;11.63;100.00;102272.81;6097990;19;20571;-70
2023/05/08 01:31:49;;;;;;;132.68;56.03;;;;;;;11.57;100.00;102271.19;6094966;19;20007;-70
2023/05/08 01:34:05;;;;;;;133.60;56.55;;;;;;;11.57;100.00;102276.47;6098537;19;20100;-70
2023/05/08 01:36:21;;;;;;;124.50;55.15;;;;;;;11.54;100.00;102280.94;6099657;19;20013;-70
2023/05/08 01:38:33;;;;;;;124.85;57.78;;;;;;;11.53;100.00;102272.19;6099083;19;20007;-70
2023/05/08 01:40:49;;;;;;;150.68;64.13;;;;;;;11.57;100.00;102280.88;6101630;19;20018;-69
2023/05/08 01:43:05;;;;;;;158.05;65.20;;;;;;;11.56;100.00;102280.00;6098325;19;20082;-69
2023/05/08 01:45:18;;;;;;;171.23;69.45;;;;;;;11.59;100.00;102284.34;6097622;19;20002;-69
2023/05/08 01:47:28;;;;;;;176.68;69.95;;;;;;;11.59;100.00;102282.56;6096899;19;20075;-70
2023/05/08 01:49:41;;;;;;;173.02;68.43;;;;;;;11.58;100.00;102285.22;6098275;19;20007;-70
2023/05/08 01:51:50;;;;;;;161.00;65.45;;;;;;;11.57;100.00;102292.25;6098932;19;20562;-69
2023/05/08 01:54:00;;;;;;;169.23;69.38;;;;;;;11.54;100.00;102286.19;6098520;19;20499;-70
2023/05/08 01:56:14;;;;;;;157.57;65.50;;;;;;;11.48;100.00;102288.94;6102057;19;20011;-69
2023/05/08 01:58:21;;;;;;;159.68;64.28;;;;;;;11.48;100.00;102291.56;6104966;19;20085;-70
2023/05/08 02:00:28;;;;;;;160.10;65.70;;;;;;;11.45;100.00;102295.13;6103506;19;20006;-69
2023/05/08 02:02:36;;;;;;;151.73;61.97;;;;;;;11.42;100.00;102296.06;6102830;19;20010;-70
2023/05/08 02:04:46;;;;;;;161.45;65.20;;;;;;;11.41;100.00;102301.38;6105350;19;20024;-70
2023/05/08 02:06:52;;;;;;;154.32;63.95;;;;;;;11.36;100.00;102298.84;6100079;19;20315;-70
2023/05/08 02:09:01;;;;;;;157.77;60.95;;;;;;;11.32;100.00;102299.81;6105289;19;20524;-70
2023/05/08 02:11:08;;;;;;;155.27;62.05;;;;;;;11.31;100.00;102298.06;6102580;19;20460;-70
2023/05/08 02:13:17;;;;;;;160.98;64.78;;;;;;;11.32;100.00;102299.81;6105149;19;20022;-70
2023/05/08 02:15:23;;;;;;;175.73;67.90;;;;;;;11.27;100.00;102298.16;6103995;19;20006;-69
2023/05/08 02:17:30;;;;;;;149.88;62.15;;;;;;;11.27;100.00;102300.78;6102438;19;20349;-70
2023/05/08 02:19:38;;;;;;;154.70;65.45;;;;;;;11.25;100.00;102299.97;6102141;19;20389;-71
2023/05/08 02:21:47;;;;;;;167.48;63.65;;;;;;;11.24;100.00;102301.69;6104890;19;20017;-70
2023/05/08 02:23:54;;;;;;;150.60;64.07;;;;;;;11.23;100.00;102307.00;6104791;19;20580;-71
2023/05/08 02:26:01;;;;;;;158.70;61.72;;;;;;;11.19;100.00;102299.19;6105694;19;20466;-72
2023/05/08 02:28:09;;;;;;;157.88;62.90;;;;;;;11.21;100.00;102304.41;6103883;19;20103;-71
2023/05/08 02:30:17;;;;;;;154.95;63.63;;;;;;;11.16;100.00;102294.00;6101880;19;20347;-70
2023/05/08 02:32:23;;;;;;;159.38;62.60;;;;;;;11.14;100.00;102303.66;6102838;19;20028;-71
2023/05/08 02:34:29;;;;;;;138.98;54.65;;;;;;;11.12;100.00;102296.69;6104056;19;20164;-71
2023/05/08 02:36:36;;;;;;;146.60;58.75;;;;;;;11.10;100.00;102298.50;6104154;19;20014;-70
2023/05/08 02:38:47;;;;;;;146.77;58.35;;;;;;;11.04;100.00;102298.63;6103738;19;20019;-70
2023/05/08 02:40:56;;;;;;;152.80;58.38;;;;;;;11.04;100.00;102301.25;6103133;19;20036;-70
2023/05/08 02:43:01;;;;;;;151.27;57.28;;;;;;;11.02;100.00;102303.03;6103691;19;20035;-70
2023/05/08 02:45:08;;;;;;;145.38;58.60;;;;;;;11.01;100.00;102303.94;6103577;19;20066;-71
2023/05/08 02:47:20;;;;;;;144.20;56.55;;;;;;;10.98;100.00;102300.47;6099323;19;20003;-70
2023/05/08 02:49:39;;;;;;;140.15;53.35;;;;;;;10.96;100.00;102293.50;6093659;19;20010;-70
2023/05/08 02:51:50;;;;;;;136.95;54.33;;;;;;;10.93;100.00;102298.81;6100333;19;20018;-70
2023/05/08 02:54:03;;;;;;;131.38;54.75;;;;;;;10.90;100.00;102294.47;6098311;19;20013;-69
2023/05/08 02:56:13;;;;;;;144.15;55.60;;;;;;;10.87;100.00;102291.88;6099621;19;20027;-70
2023/05/08 02:58:24;;;;;;;129.35;52.50;;;;;;;10.87;100.00;102297.16;6100369;19;20006;-70
2023/05/08 03:00:33;;;;;;;139.38;56.58;;;;;;;10.85;100.00;102296.34;6100244;19;20030;-71
2023/05/08 03:02:45;;;;;;;132.57;54.85;;;;;;;10.85;100.00;102291.06;6098667;19;20531;-71
2023/05/08 03:04:54;;;;;;;122.85;52.20;;;;;;;10.82;100.00;102292.88;6100834;19;20039;-71
2023/05/08 03:07:01;;;;;;;141.18;53.00;;;;;;;10.80;100.00;102290.28;6102841;19;20006;-70
2023/05/08 03:09:13;;;;;;;147.95;57.38;;;;;;;10.78;100.00;102292.06;6102207;19;20064;-72
2023/05/08 03:11:25;;;;;;;138.70;55.00;;;;;;;10.76;100.00;102288.59;6100891;19;20019;-71
2023/05/08 03:13:35;;;;;;;157.00;62.20;;;;;;;10.75;100.00;102292.13;6098151;19;20541;-71
2023/05/08 03:15:46;;;;;;;203.30;67.28;;;;;;;10.72;100.00;102295.69;6099917;19;20078;-69
2023/05/08 03:17:54;;;;;;;168.45;58.88;;;;;;;10.72;100.00;102290.41;6097078;19;20021;-69
2023/05/08 03:20:04;;;;;;;143.25;52.70;;;;;;;10.70;100.00;102291.34;6099412;19;20053;-70
2023/05/08 03:22:12;;;;;;;156.02;59.58;;;;;;;10.69;100.00;102294.84;6099998;19;20599;-70
2023/05/08 03:24:21;;;;;;;141.13;56.67;;;;;;;10.68;100.00;102290.50;6098830;19;20705;-70
2023/05/08 03:26:27;;;;;;;129.07;51.88;;;;;;;10.70;100.00;102289.56;6100573;19;20002;-70
2023/05/08 03:28:35;;;;;;;182.52;57.00;;;;;;;10.69;100.00;102294.84;6100795;19;20011;-70
2023/05/08 03:30:43;;;;;;;159.18;57.50;;;;;;;10.68;100.00;102291.34;6101393;19;20396;-70
2023/05/08 03:32:51;;;;;;;159.73;55.88;;;;;;;10.73;100.00;102299.16;6100217;19;20084;-71
2023/05/08 03:35:01;;;;;;;139.20;50.72;;;;;;;10.75;100.00;102290.34;6100210;19;20021;-71
2023/05/08 03:37:07;;;;;;;146.93;52.08;;;;;;;10.78;100.00;102292.06;6103116;19;20014;-70
2023/05/08 03:39:12;;;;;;;168.00;54.03;;;;;;;10.79;100.00;102299.03;6099768;19;20006;-70
2023/05/08 03:41:20;;;;;;;155.52;53.45;;;;;;;10.80;100.00;102292.91;6101891;19;20035;-71
2023/05/08 03:43:25;;;;;;;150.75;54.55;;;;;;;10.72;100.00;102293.06;6098350;19;20009;-70
2023/05/08 03:45:32;;;;;;;152.40;53.42;;;;;;;10.73;100.00;102294.78;6099770;19;20086;-70
2023/05/08 03:47:39;;;;;;;135.27;51.67;;;;;;;10.79;100.00;102288.53;5933420;19;3331153;-70
2023/05/08 03:49:47;;;;;;;135.88;48.30;;;;;;;10.82;100.00;102284.97;6101510;19;20035;-70
2023/05/08 03:51:53;;;;;;;141.63;50.10;;;;;;;10.86;100.00;102284.03;6103436;19;20007;-70
2023/05/08 03:53:57;;;;;;;220.75;62.72;;;;;;;10.84;100.00;102278.78;6098092;19;20020;-70
2023/05/08 03:56:04;;;;;;;284.25;66.25;;;;;;;10.78;100.00;102273.66;6101270;19;20082;-70
2023/05/08 03:58:23;;;;;;;163.32;54.42;;;;;;;10.79;100.00;102269.25;6100271;19;20014;-70
2023/05/08 04:00:35;;;;;;;284.80;60.75;;;;;;;10.73;100.00;102271.09;6099727;19;20081;-70
2023/05/08 04:02:51;;;;;;;174.10;57.05;;;;;;;10.74;100.00;102267.59;6103251;19;20353;-71
2023/05/08 04:05:08;;;;;;;211.65;59.53;;;;;;;10.73;100.00;102272.88;6100218;19;20002;-71
2023/05/08 04:07:19;;;;;;;191.13;54.80;;;;;;;10.71;100.00;102272.03;6102866;19;20002;-71
2023/05/08 04:09:32;;;;;;;260.63;66.07;;;;;;;10.68;100.00;102275.59;6099865;19;20037;-70
2023/05/08 04:11:45;;;;;;;230.25;58.10;;;;;;;10.67;100.00;102281.75;6103007;19;20093;-71
2023/05/08 04:14:05;;;;;;;190.80;55.63;;;;;;;10.72;100.00;102279.03;6099767;19;20018;-71
2023/05/08 04:16:18;;;;;;;228.88;60.83;;;;;;;10.72;100.00;102281.66;6100195;19;20010;-71
2023/05/08 04:18:27;;;;;;;198.82;58.10;;;;;;;10.79;100.00;102279.78;6098479;19;20040;-71
2023/05/08 04:20:34;;;;;;;170.30;53.67;;;;;;;10.85;100.00;102291.06;6100848;19;20411;-73
2023/05/08 04:22:42;;;;;;;173.40;51.72;;;;;;;10.89;100.00;102290.09;6101407;19;20011;-71
2023/05/08 04:24:50;;;;;;;171.15;53.80;;;;;;;10.94;100.00;102284.75;6100444;19;20006;-71
2023/05/08 04:26:56;;;;;;;162.27;50.50;;;;;;;10.97;100.00;102282.94;6099980;19;20007;-71
2023/05/08 04:29:05;;;;;;;245.55;57.28;;;;;;;10.92;100.00;102292.66;6102748;19;20022;-71
2023/05/08 04:31:11;;;;;;;182.82;52.85;;;;;;;10.88;100.00;102291.00;6096834;19;20113;-71
2023/05/08 04:33:17;;;;;;;187.60;54.35;;;;;;;10.91;100.00;102296.22;6101442;19;20006;-72
2023/05/08 04:35:23;;;;;;;172.98;52.70;;;;;;;10.91;100.00;102290.09;6099578;19;20002;-70
2023/05/08 04:37:30;;;;;;;270.92;55.95;;;;;;;10.93;100.00;102299.69;6100246;19;20421;-72
2023/05/08 04:39:35;;;;;;;141.75;48.58;;;;;;;11.01;100.00;102296.06;6102569;19;20010;-71
2023/05/08 04:41:40;;;;;;;178.38;50.30;;;;;;;11.02;100.00;102298.63;6101461;19;20018;-71
2023/05/08 04:43:45;;;;;;;196.50;49.22;;;;;;;11.05;100.00;102300.34;6101222;19;20010;-71
2023/05/08 04:45:58;;;;;;;213.45;51.67;;;;;;;11.10;100.00;102293.22;6099455;19;20073;-71
2023/05/08 04:48:03;;;;;;;181.63;46.35;;;;;;;11.13;100.00;102301.06;6101764;19;20415;-71
2023/05/08 04:50:09;;;;;;;141.77;42.00;;;;;;;11.17;100.00;102302.75;6099839;19;20007;-71
2023/05/08 04:52:14;;;;;;;198.48;46.63;;;;;;;11.20;100.00;102297.41;6097634;19;20052;-71
2023/05/08 04:54:20;;;;;;;219.98;49.42;;;;;;;11.18;100.00;102299.19;6100203;19;20065;-71
2023/05/08 04:56:25;;;;;;;140.05;41.22;;;;;;;11.15;100.00;102294.00;6101730;19;20003;-71
2023/05/08 04:58:30;;;;;;;145.23;39.40;;;;;;;11.25;100.00;102300.81;6099618;19;20011;-71
2023/05/08 05:00:38;;;;;;;195.82;44.47;;;;;;;11.22;100.00;102308.78;6098284;19;20014;-71
2023/05/08 05:02:45;;;;;;;154.07;39.50;;;;;;;11.20;100.00;102308.81;6099590;19;20006;-72
2023/05/08 05:04:50;;;;;;;124.05;36.30;;;;;;;11.23;100.00;102314.91;6099023;19;20562;-70
2023/05/08 05:06:56;;;;;;;106.50;34.40;;;;;;;11.30;100.00;102317.38;6101014;19;20705;-70
2023/05/08 05:09:00;;;;;;;124.10;35.80;;;;;;;11.35;100.00;102312.91;6099661;19;20014;-69
2023/05/08 05:11:06;;;;;;;153.70;37.00;;;;;;;11.33;100.00;102319.97;6100566;19;20011;-69
2023/05/08 05:13:10;;;;;;;101.80;29.23;;;;;;;11.45;100.00;102328.50;6098016;19;20082;-70
2023/05/08 05:15:16;;;;;;;143.55;34.25;;;;;;;11.41;100.00;102327.69;6099633;19;20129;-70
2023/05/08 05:17:21;;;;;;;114.43;32.70;;;;;;;11.45;100.00;102331.13;6095881;19;20013;-69
2023/05/08 05:19:30;;;;;;;101.72;30.45;;;;;;;11.52;100.00;102330.97;6097757;19;20041;-69
2023/05/08 05:21:36;;;;;;;143.60;30.50;;;;;;;11.50;100.00;102326.63;6098794;19;20017;-69
2023/05/08 05:23:41;;;;;;;107.07;30.83;;;;;;;11.55;100.00;102335.31;6098366;19;20010;-69
2023/05/08 05:25:46;;;;;;;158.05;33.85;;;;;;;11.50;100.00;102339.81;6098935;19;20390;-69
2023/05/08 05:27:51;;;;;;;99.00;28.50;;;;;;;11.55;100.00;102343.22;6099793;19;20011;-69
2023/05/08 05:29:57;;;;;;;83.13;27.98;;;;;;;11.57;100.00;102338.78;6099616;19;20014;-70
2023/05/08 05:32:03;;;;;;;88.50;28.70;;;;;;;11.68;100.00;102344.69;6098484;19;20044;-69
2023/05/08 05:34:09;;;;;;;155.95;34.35;;;;;;;11.58;100.00;102345.78;6099539;19;20144;-69
2023/05/08 05:36:16;;;;;;;116.70;32.47;;;;;;;11.70;100.00;102349.94;6101208;19;20021;-69
2023/05/08 05:38:21;;;;;;;101.18;30.90;;;;;;;11.77;100.00;102355.03;6097096;19;20006;-69
2023/05/08 05:40:29;;;;;;;112.28;32.15;;;;;;;11.83;100.00;102351.41;6095848;19;20040;-69
2023/05/08 05:42:34;;;;;;;112.10;32.30;;;;;;;11.93;100.00;102357.34;6097855;19;20263;-69
2023/05/08 05:44:39;;;;;;;112.03;32.85;;;;;;;11.98;100.00;102352.84;6097560;19;20036;-70
2023/05/08 05:46:44;;;;;;;110.60;32.63;;;;;;;11.94;100.00;102357.34;6096343;19;20558;-68
2023/05/08 05:48:49;;;;;;;102.47;31.60;;;;;;;12.03;100.00;102364.16;6096638;19;20006;-69
2023/05/08 05:50:54;;;;;;;96.88;30.55;;;;;;;12.16;100.00;102357.72;6096258;19;20013;-69
2023/05/08 05:53:02;;;;;;;97.60;29.75;;;;;;;12.22;100.00;102359.38;6094248;19;20017;-69
2023/05/08 05:55:09;;;;;;;110.18;32.83;;;;;;;12.23;100.00;102366.34;6098103;19;20015;-69
2023/05/08 05:57:14;;;;;;;93.50;30.63;;;;;;;12.30;100.00;102367.97;6099674;19;20010;-69
2023/05/08 05:59:22;;;;;;;105.22;31.90;;;;;;;12.31;100.00;102364.41;6095345;19;20401;-69
2023/05/08 06:01:28;;;;;;;105.80;33.13;;;;;;;12.39;100.00;102377.41;6096216;19;20775;-68
2023/05/08 06:03:33;;;;;;;110.60;31.45;;;;;;;12.43;100.00;102369.41;6096937;19;20082;-69
2023/05/08 06:05:40;;;;;;;117.25;34.17;;;;;;;12.53;100.00;102377.94;6095289;19;20010;-69
2023/05/08 06:07:45;;;;;;;99.10;31.73;;;;;;;12.57;100.00;102369.06;6096305;19;20558;-69
2023/05/08 06:09:55;;;;;;;97.75;32.30;;;;;;;12.59;100.00;102367.25;6098219;19;20011;-69
2023/05/08 06:12:00;;;;;;;112.93;32.65;;;;;;;12.57;100.00;102374.34;6099215;19;20002;-69
2023/05/08 06:14:05;;;;;;;108.10;34.60;;;;;;;12.66;100.00;102371.47;6097550;19;20610;-69
2023/05/08 06:16:10;;;;;;;100.60;31.00;;;;;;;12.76;100.00;102372.09;6097565;19;20010;-69
2023/05/08 06:18:16;;;;;;;97.93;30.30;;;;;;;12.83;100.00;102372.84;6094936;19;20015;-69
2023/05/08 06:20:21;;;;;;;106.05;31.40;;;;;;;12.86;100.00;102376.25;6095835;19;20007;-70
2023/05/08 06:22:30;;;;;;;117.28;31.10;;;;;;;12.83;100.00;102370.19;6094429;19;20033;-70
2023/05/08 06:24:35;;;;;;;88.20;28.02;;;;;;;12.93;100.00;102375.19;6095937;19;20436;-70
2023/05/08 06:26:43;;;;;;;101.25;33.08;;;;;;;12.99;100.00;102368.88;6097494;19;20010;-70
2023/05/08 06:28:48;;;;;;;103.07;32.78;;;;;;;13.09;100.00;102370.38;6095815;19;20621;-70
2023/05/08 06:30:53;;;;;;;95.68;34.60;;;;;;;13.20;100.00;102371.88;6097142;19;20466;-70
2023/05/08 06:32:58;;;;;;;104.45;31.33;;;;;;;13.15;100.00;102364.06;6094273;19;20464;-69
2023/05/08 06:35:03;;;;;;;102.72;31.30;;;;;;;13.17;100.00;102373.69;6096427;19;20370;-70
2023/05/08 06:37:09;;;;;;;86.35;28.25;;;;;;;13.25;100.00;102369.97;6093166;19;20077;-69
2023/05/08 06:39:14;;;;;;;89.63;28.13;;;;;;;13.33;100.00;102360.09;6090433;19;20014;-69
2023/05/08 06:41:20;;;;;;;88.70;28.73;;;;;;;13.34;100.00;102367.97;6095312;19;20122;-68
2023/05/08 06:43:29;;;;;;;111.28;30.13;;;;;;;13.41;100.00;102365.16;6100746;19;20015;-68
2023/05/08 06:45:34;;;;;;;104.88;31.35;;;;;;;13.32;100.00;102366.28;6098804;19;20032;-68
2023/05/08 06:47:40;;;;;;;91.32;28.13;;;;;;;13.38;100.00;102360.84;6101261;19;20417;-68
2023/05/08 06:49:45;;;;;;;106.40;29.58;;;;;;;13.53;100.00;102354.25;6101051;19;20448;-68
2023/05/08 06:51:50;;;;;;;111.05;29.95;;;;;;;13.44;100.00;102360.66;6100161;19;20464;-69
2023/05/08 06:53:55;;;;;;;100.40;28.30;;;;;;;13.52;100.00;102357.81;6099275;19;20070;-68
2023/05/08 06:56:00;;;;;;;113.18;30.08;;;;;;;13.63;100.00;102360.13;6093590;19;20021;-68
2023/05/08 06:58:05;;;;;;;128.93;33.42;;;;;;;13.68;100.00;102363.50;6099674;19;20110;-69
2023/05/08 07:00:15;;;;;;;107.47;29.23;;;;;;;13.59;100.00;102360.22;6099884;19;20129;-69
2023/05/08 07:02:20;;;;;;;110.18;31.48;;;;;;;13.77;100.00;102358.84;6096088;19;20075;-70
2023/05/08 07:04:25;;;;;;;100.70;30.13;;;;;;;13.76;100.00;102361.50;6094334;19;20024;-70
2023/05/08 07:06:30;;;;;;;102.35;30.48;;;;;;;13.82;100.00;102362.22;6090807;19;20007;-70
2023/05/08 07:08:36;;;;;;;106.38;30.13;;;;;;;13.87;100.00;102351.47;6096599;19;20418;-70
2023/05/08 07:10:41;;;;;;;97.75;30.27;;;;;;;13.94;100.00;102350.38;6095160;19;20048;-70
2023/05/08 07:12:46;;;;;;;104.43;30.30;;;;;;;13.92;99.57;102357.50;6096461;19;20007;-70
2023/05/08 07:14:51;;;;;;;94.10;29.98;;;;;;;13.86;98.98;102341.81;6097142;19;20010;-70
2023/05/08 07:17:05;;;;;;;84.15;27.42;;;;;;;13.98;99.06;102343.22;6092132;19;20490;-69
2023/05/08 07:19:10;;;;;;;92.43;26.45;;;;;;;13.98;98.93;102345.84;6099732;19;20020;-70
2023/05/08 07:21:17;;;;;;;98.68;28.15;;;;;;;13.83;98.61;102352.50;6096693;19;20010;-70
2023/05/08 07:23:22;;;;;;;94.03;26.75;;;;;;;13.95;99.69;102351.25;6091575;19;20023;-69
2023/05/08 07:25:28;;;;;;;89.20;29.10;;;;;;;14.05;98.47;102347.41;6092740;19;20684;-69
2023/05/08 07:27:32;;;;;;;87.05;26.95;;;;;;;14.19;98.57;102346.97;6100238;19;20495;-69
2023/05/08 07:29:40;;;;;;;93.97;29.52;;;;;;;14.30;98.42;102355.44;6092349;19;20049;-69
2023/05/08 07:31:45;;;;;;;92.88;26.13;;;;;;;14.39;97.94;102352.50;6098582;19;20508;-70
2023/05/08 07:33:53;;;;;;;95.65;28.77;;;;;;;14.40;98.13;102350.72;6095856;19;20010;-69
2023/05/08 07:35:58;;;;;;;95.97;26.95;;;;;;;14.62;98.39;102354.44;6094463;19;20506;-70
2023/05/08 07:38:03;;;;;;;89.32;27.50;;;;;;;14.82;98.03;102345.81;6097369;19;20007;-70
2023/05/08 07:40:10;;;;;;;70.75;23.38;;;;;;;14.90;96.23;102349.06;6096440;19;20589;-69
2023/05/08 07:42:17;;;;;;;67.45;23.52;;;;;;;14.84;94.25;102340.47;6094187;19;20483;-69
2023/05/08 07:44:22;;;;;;;70.15;22.38;;;;;;;14.90;94.82;102346.44;6094906;19;20082;-69
2023/05/08 07:46:30;;;;;;;74.00;24.33;;;;;;;15.05;94.43;102344.16;6101642;19;20010;-69
2023/05/08 07:48:37;;;;;;;75.75;25.05;;;;;;;15.16;95.29;102344.63;6098779;19;20132;-69
2023/05/08 07:50:44;;;;;;;85.53;27.23;;;;;;;15.24;94.87;102353.16;6090654;19;20377;-68
2023/05/08 07:52:50;;;;;;;73.93;23.95;;;;;;;15.29;95.15;102350.34;6090336;19;20002;-68
2023/05/08 07:54:55;;;;;;;71.88;25.20;;;;;;;15.42;95.26;102354.28;6098272;19;20536;-68
2023/05/08 07:57:00;;;;;;;80.65;28.17;;;;;;;15.44;94.26;102355.09;6095511;19;20479;-68
2023/05/08 07:59:06;;;;;;;74.15;26.08;;;;;;;15.58;94.16;102352.78;6093569;19;20015;-69
2023/05/08 08:01:11;;;;;;;78.80;27.70;;;;;;;15.20;91.92;102351.56;6092931;19;20825;-69
2023/05/08 08:03:16;;;;;;;81.63;27.77;;;;;;;15.41;93.49;102352.56;6096095;19;20023;-69
2023/05/08 08:05:22;;;;;;;78.78;27.40;;;;;;;15.47;92.96;102356.78;6096164;19;20009;-69
2023/05/08 08:07:31;;;;;;;71.93;26.58;;;;;;;15.23;92.53;102350.59;6094173;19;20456;-69
2023/05/08 08:09:36;;;;;;;75.53;25.70;;;;;;;15.40;92.91;102352.59;6097008;19;20014;-68
2023/05/08 08:11:41;;;;;;;76.50;27.30;;;;;;;15.62;92.11;102350.91;6095434;19;20098;-68
2023/05/08 08:13:46;;;;;;;68.50;26.80;;;;;;;15.81;92.50;102353.75;6090899;19;20073;-68
2023/05/08 08:15:51;;;;;;;80.10;27.98;;;;;;;15.82;91.04;102358.13;6095090;19;20097;-70
2023/05/08 08:17:56;;;;;;;80.15;27.17;;;;;;;15.94;91.04;102352.34;6093602;19;20014;-68
2023/05/08 08:20:02;;;;;;;74.30;26.67;;;;;;;15.97;91.35;102356.69;6096655;19;20014;-70
2023/05/08 08:22:08;;;;;;;59.78;23.55;;;;;;;16.17;90.71;102356.75;6096874;19;20005;-68
2023/05/08 08:24:16;;;;;;;69.82;25.02;;;;;;;16.21;89.16;102352.19;6099963;19;20476;-68
2023/05/08 08:26:21;;;;;;;63.95;23.25;;;;;;;16.40;89.13;102349.66;6099977;19;20007;-69
2023/05/08 08:28:26;;;;;;;58.00;23.58;;;;;;;16.60;88.45;102348.84;6099643;19;20023;-70
2023/05/08 08:30:34;;;;;;;64.80;24.00;;;;;;;16.71;88.42;102356.34;6099121;19;20017;-69
2023/05/08 08:32:40;;;;;;;66.15;24.70;;;;;;;16.66;87.85;102346.78;6098500;19;20007;-69
2023/05/08 08:34:45;;;;;;;63.53;23.33;;;;;;;16.89;87.02;102351.16;6096686;19;20485;-69
2023/05/08 08:36:50;;;;;;;69.55;25.33;;;;;;;17.17;87.63;102349.06;6097872;19;20036;-69
2023/05/08 08:38:55;;;;;;;71.30;24.23;;;;;;;17.28;87.06;102349.47;6099687;19;20014;-69
2023/05/08 08:41:03;;;;;;;72.00;24.30;;;;;;;17.48;85.32;102349.44;6097865;19;20025;-69
2023/05/08 08:43:09;;;;;;;66.35;23.92;;;;;;;17.59;85.60;102348.06;6098606;19;20014;-69
2023/05/08 08:45:13;;;;;;;70.82;24.40;;;;;;;17.75;82.40;102341.13;6099192;19;20019;-68
2023/05/08 08:47:22;;;;;;;64.97;24.27;;;;;;;18.06;84.37;102350.34;6097802;19;20007;-71
2023/05/08 08:49:32;;;;;;;61.63;24.25;;;;;;;18.09;82.90;102337.78;6100523;19;20464;-69
2023/05/08 08:51:47;;;;;;;62.33;24.42;;;;;;;18.33;80.27;102338.38;6098454;19;20161;-69
2023/05/08 08:54:00;;;;;;;66.18;25.70;;;;;;;18.49;80.85;102333.13;6094789;19;20070;-69
2023/05/08 08:56:09;;;;;;;;;;;;;;;18.54;79.11;102333.78;6099310;19;20006;-69
2023/05/08 08:58:20;;;;;;;64.30;25.27;;;;;;;18.86;78.59;102332.16;6096649;19;20416;-69
2023/05/08 09:00:28;;;;;;;69.20;28.67;;;;;;;18.82;76.86;102335.06;6092606;19;20003;-71
2023/05/08 09:02:34;;;;;;;72.68;28.63;;;;;;;18.56;79.89;102331.91;6092249;19;20017;-71
2023/05/08 09:04:40;;;;;;;70.57;29.20;;;;;;;18.43;78.08;102330.75;6094477;19;20006;-70
2023/05/08 09:06:45;;;;;;;71.97;30.13;;;;;;;18.36;76.93;102327.56;6094786;19;20003;-72
2023/05/08 09:08:51;;;;;;;78.10;31.88;;;;;;;19.17;76.73;102332.34;6091905;19;20017;-73
2023/05/08 09:10:58;;;;;;;79.40;31.08;;;;;;;19.83;76.05;102334.16;6091780;19;20477;-73
2023/05/08 09:13:06;;;;;;;72.75;29.30;;;;;;;19.38;75.06;102336.56;6094294;19;20018;-71
2023/05/08 09:15:12;;;;;;;70.70;30.50;;;;;;;19.37;76.36;102336.63;6095505;19;20002;-71
2023/05/08 09:17:17;;;;;;;74.93;29.48;;;;;;;19.37;77.50;102344.63;6091020;19;20171;-70
2023/05/08 09:19:23;;;;;;;88.07;32.35;;;;;;;19.49;75.91;102335.97;6094479;19;20455;-70
2023/05/08 09:21:32;;;;;;;61.97;27.33;;;;;;;19.16;75.64;102334.16;6089941;19;20014;-71
2023/05/08 09:23:39;;;;;;;75.28;28.73;;;;;;;18.92;75.32;102333.63;6091094;19;21557;-71
2023/05/08 09:25:44;;;;;;;81.70;31.80;;;;;;;18.76;75.55;102343.38;6101130;19;20032;-71
2023/05/08 09:27:49;;;;;;;74.97;29.67;;;;;;;18.83;76.29;102340.31;6098547;19;20010;-69
2023/05/08 09:30:06;;;;;;;71.75;30.60;;;;;;;18.64;75.27;102337.69;6099703;19;20033;-69
2023/05/08 09:32:20;;;;;;;82.72;32.35;;;;;;;18.33;75.93;102340.16;6100792;19;20023;-70